createdAt,value
2023-05-05T00:00:09.056Z,915.00
2023-05-05T00:01:08.847Z,924.00
2023-05-05T00:02:08.884Z,908.00
2023-05-05T00:03:08.886Z,906.00
2023-05-05T00:04:08.893Z,911.00
2023-05-05T00:05:08.840Z,908.00
2023-05-05T00:06:08.828Z,905.00
2023-05-05T00:07:08.837Z,914.00
2023-05-05T00:08:08.830Z,904.00
2023-05-05T00:09:08.853Z,910.00
2023-05-05T00:10:09.028Z,910.00
2023-05-05T00:11:08.823Z,908.00
2023-05-05T00:12:08.815Z,910.00
2023-05-05T00:13:08.905Z,910.00
2023-05-05T00:14:08.848Z,919.00
2023-05-05T00:15:08.844Z,907.00
2023-05-05T00:16:08.834Z,912.00
2023-05-05T00:17:08.870Z,907.00
2023-05-05T00:18:08.917Z,908.00
2023-05-05T00:19:09.076Z,903.00
2023-05-05T00:20:09.010Z,911.00
2023-05-05T00:21:08.828Z,908.00
2023-05-05T00:22:08.818Z,909.00
2023-05-05T00:23:08.830Z,912.00
2023-05-05T00:24:08.819Z,916.00
2023-05-05T00:25:08.780Z,911.00
2023-05-05T00:26:08.778Z,910.00
2023-05-05T00:27:08.756Z,896.00
2023-05-05T00:28:08.745Z,911.00
2023-05-05T00:29:08.733Z,908.00
2023-05-05T00:30:08.943Z,904.00
2023-05-05T00:31:08.801Z,884.00
2023-05-05T00:32:08.701Z,914.00
2023-05-05T00:33:08.680Z,904.00
2023-05-05T00:34:08.672Z,900.00
2023-05-05T00:35:08.649Z,903.00
2023-05-05T00:36:08.641Z,900.00
2023-05-05T00:37:08.635Z,889.00
2023-05-05T00:38:08.644Z,890.00
2023-05-05T00:39:08.602Z,908.00
2023-05-05T00:40:08.778Z,906.00
2023-05-05T00:41:08.563Z,893.00
2023-05-05T00:42:08.557Z,894.00
2023-05-05T00:43:08.611Z,885.00
2023-05-05T00:44:08.527Z,900.00
2023-05-05T00:45:08.513Z,896.00
2023-05-05T00:46:08.514Z,893.00
2023-05-05T00:47:08.493Z,891.00
2023-05-05T00:48:08.547Z,895.00
2023-05-05T00:49:08.506Z,893.00
2023-05-05T00:50:08.632Z,889.00
2023-05-05T00:51:08.490Z,888.00
2023-05-05T00:52:08.499Z,888.00
2023-05-05T00:53:08.490Z,889.00
2023-05-05T00:54:08.481Z,894.00
2023-05-05T00:55:08.480Z,899.00
2023-05-05T00:56:08.474Z,894.00
2023-05-05T00:57:08.477Z,890.00
2023-05-05T00:58:08.465Z,888.00
2023-05-05T00:59:08.477Z,885.00
2023-05-05T01:00:08.793Z,888.00
2023-05-05T01:01:08.515Z,897.00
2023-05-05T01:02:08.474Z,884.00
2023-05-05T01:03:08.586Z,884.00
2023-05-05T01:04:08.479Z,883.00
2023-05-05T01:05:08.504Z,882.00
2023-05-05T01:06:08.481Z,885.00
2023-05-05T01:07:08.461Z,891.00
2023-05-05T01:08:08.466Z,883.00
2023-05-05T01:09:08.476Z,891.00
2023-05-05T01:10:18.877Z,884.00
2023-05-05T01:11:09.446Z,885.00
2023-05-05T01:12:08.428Z,886.00
2023-05-05T01:13:08.516Z,887.00
2023-05-05T01:14:08.428Z,888.00
2023-05-05T01:15:08.383Z,877.00
2023-05-05T01:16:08.442Z,896.00
2023-05-05T01:17:08.364Z,889.00
2023-05-05T01:18:08.348Z,887.00
2023-05-05T01:19:08.336Z,879.00
2023-05-05T01:20:08.547Z,883.00
2023-05-05T01:21:09.288Z,884.00
2023-05-05T01:22:08.292Z,886.00
2023-05-05T01:23:08.277Z,888.00
2023-05-05T01:24:08.255Z,886.00
2023-05-05T01:25:08.241Z,883.00
2023-05-05T01:26:08.218Z,890.00
2023-05-05T01:27:08.216Z,886.00
2023-05-05T01:28:08.219Z,901.00
2023-05-05T01:29:08.182Z,886.00
2023-05-05T01:30:08.449Z,880.00
2023-05-05T01:31:08.168Z,890.00
2023-05-05T01:32:08.156Z,874.00
2023-05-05T01:33:08.146Z,884.00
2023-05-05T01:34:08.146Z,877.00
2023-05-05T01:35:08.122Z,879.00
2023-05-05T01:36:08.103Z,880.00
2023-05-05T01:37:08.091Z,876.00
2023-05-05T01:38:08.079Z,888.00
2023-05-05T01:39:08.046Z,887.00
2023-05-05T01:40:08.238Z,867.00
2023-05-05T01:41:08.009Z,878.00
2023-05-05T01:42:07.999Z,880.00
2023-05-05T01:43:07.984Z,880.00
2023-05-05T01:44:07.981Z,875.00
2023-05-05T01:45:07.956Z,883.00
2023-05-05T01:46:07.978Z,875.00
2023-05-05T01:47:07.919Z,870.00
2023-05-05T01:48:07.907Z,880.00
2023-05-05T01:49:07.887Z,874.00
2023-05-05T01:50:08.119Z,877.00
2023-05-05T01:51:07.873Z,879.00
2023-05-05T01:52:07.874Z,876.00
2023-05-05T01:53:07.868Z,874.00
2023-05-05T01:54:07.838Z,877.00
2023-05-05T01:55:07.823Z,872.00
2023-05-05T01:56:07.816Z,863.00
2023-05-05T01:57:07.833Z,867.00
2023-05-05T01:58:07.819Z,873.00
2023-05-05T01:59:07.971Z,872.00
2023-05-05T02:00:08.066Z,881.00
2023-05-05T02:01:07.920Z,876.00
2023-05-05T02:02:07.860Z,871.00
2023-05-05T02:03:07.984Z,876.00
2023-05-05T02:04:07.819Z,867.00
2023-05-05T02:05:07.818Z,866.00
2023-05-05T02:06:07.888Z,867.00
2023-05-05T02:07:07.827Z,876.00
2023-05-05T02:08:07.810Z,855.00
2023-05-05T02:09:07.816Z,866.00
2023-05-05T02:10:08.122Z,862.00
2023-05-05T02:11:07.824Z,862.00
2023-05-05T02:12:07.814Z,869.00
2023-05-05T02:13:07.954Z,871.00
2023-05-05T02:14:07.807Z,865.00
2023-05-05T02:15:07.813Z,863.00
2023-05-05T02:16:07.831Z,860.00
2023-05-05T02:17:07.794Z,857.00
2023-05-05T02:18:07.852Z,861.00
2023-05-05T02:19:07.807Z,858.00
2023-05-05T02:20:07.987Z,854.00
2023-05-05T02:21:07.786Z,854.00
2023-05-05T02:22:07.782Z,856.00
2023-05-05T02:23:07.784Z,860.00
2023-05-05T02:24:07.765Z,855.00
2023-05-05T02:25:07.772Z,856.00
2023-05-05T02:26:07.750Z,851.00
2023-05-05T02:27:07.742Z,855.00
2023-05-05T02:28:07.744Z,850.00
2023-05-05T02:29:07.810Z,869.00
2023-05-05T02:30:08.000Z,856.00
2023-05-05T02:31:07.747Z,859.00
2023-05-05T02:32:07.719Z,842.00
2023-05-05T02:33:07.724Z,861.00
2023-05-05T02:34:07.704Z,850.00
2023-05-05T02:35:07.709Z,856.00
2023-05-05T02:36:07.703Z,855.00
2023-05-05T02:37:07.725Z,849.00
2023-05-05T02:38:07.695Z,864.00
2023-05-05T02:39:07.689Z,857.00
2023-05-05T02:40:07.940Z,852.00
2023-05-05T02:41:07.691Z,860.00
2023-05-05T02:42:07.696Z,865.00
2023-05-05T02:43:07.776Z,858.00
2023-05-05T02:44:07.689Z,867.00
2023-05-05T02:45:07.689Z,868.00
2023-05-05T02:46:07.710Z,845.00
2023-05-05T02:47:07.685Z,851.00
2023-05-05T02:48:07.698Z,855.00
2023-05-05T02:49:07.688Z,864.00
2023-05-05T02:50:07.804Z,857.00
2023-05-05T02:51:07.677Z,858.00
2023-05-05T02:52:07.657Z,857.00
2023-05-05T02:53:07.642Z,861.00
2023-05-05T02:54:07.620Z,860.00
2023-05-05T02:55:07.619Z,859.00
2023-05-05T02:56:07.610Z,853.00
2023-05-05T02:57:07.594Z,843.00
2023-05-05T02:58:07.600Z,849.00
2023-05-05T02:59:07.567Z,852.00
2023-05-05T03:00:07.700Z,856.00
2023-05-05T03:01:07.578Z,842.00
2023-05-05T03:02:07.531Z,856.00
2023-05-05T03:03:07.586Z,841.00
2023-05-05T03:04:07.505Z,852.00
2023-05-05T03:05:07.511Z,841.00
2023-05-05T03:06:07.490Z,845.00
2023-05-05T03:07:07.472Z,843.00
2023-05-05T03:08:07.466Z,835.00
2023-05-05T03:09:07.450Z,848.00
2023-05-05T03:10:07.733Z,842.00
2023-05-05T03:11:07.443Z,842.00
2023-05-05T03:12:07.453Z,839.00
2023-05-05T03:13:07.483Z,831.00
2023-05-05T03:14:07.397Z,842.00
2023-05-05T03:15:07.394Z,836.00
2023-05-05T03:16:07.415Z,828.00
2023-05-05T03:17:07.382Z,830.00
2023-05-05T03:18:07.450Z,831.00
2023-05-05T03:19:07.357Z,835.00
2023-05-05T03:20:07.513Z,826.00
2023-05-05T03:21:07.344Z,844.00
2023-05-05T03:22:07.328Z,842.00
2023-05-05T03:23:07.318Z,840.00
2023-05-05T03:24:07.299Z,828.00
2023-05-05T03:25:07.288Z,830.00
2023-05-05T03:26:07.283Z,841.00
2023-05-05T03:27:07.280Z,836.00
2023-05-05T03:28:07.271Z,832.00
2023-05-05T03:29:07.288Z,829.00
2023-05-05T03:30:07.494Z,822.00
2023-05-05T03:31:07.246Z,818.00
2023-05-05T03:32:07.384Z,831.00
2023-05-05T03:33:07.266Z,832.00
2023-05-05T03:34:07.400Z,833.00
2023-05-05T03:35:07.201Z,828.00
2023-05-05T03:36:07.189Z,828.00
2023-05-05T03:37:07.214Z,827.00
2023-05-05T03:38:07.235Z,826.00
2023-05-05T03:39:07.161Z,815.00
2023-05-05T03:40:07.318Z,828.00
2023-05-05T03:41:07.162Z,813.00
2023-05-05T03:42:07.146Z,826.00
2023-05-05T03:43:07.120Z,818.00
2023-05-05T03:44:07.115Z,816.00
2023-05-05T03:45:07.115Z,807.00
2023-05-05T03:46:07.115Z,808.00
2023-05-05T03:47:07.097Z,811.00
2023-05-05T03:48:07.165Z,809.00
2023-05-05T03:49:07.062Z,813.00
2023-05-05T03:50:07.282Z,817.00
2023-05-05T03:51:07.055Z,820.00
2023-05-05T03:52:07.044Z,830.00
2023-05-05T03:53:07.047Z,821.00
2023-05-05T03:54:07.026Z,819.00
2023-05-05T03:55:07.022Z,820.00
2023-05-05T03:56:07.022Z,813.00
2023-05-05T03:57:07.003Z,808.00
2023-05-05T03:58:06.991Z,820.00
2023-05-05T03:59:06.975Z,809.00
2023-05-05T04:00:07.102Z,812.00
2023-05-05T04:01:06.952Z,807.00
2023-05-05T04:02:06.961Z,808.00
2023-05-05T04:03:07.119Z,811.00
2023-05-05T04:04:06.918Z,806.00
2023-05-05T04:05:06.896Z,805.00
2023-05-05T04:06:06.897Z,815.00
2023-05-05T04:07:06.887Z,819.00
2023-05-05T04:08:06.886Z,814.00
2023-05-05T04:09:06.865Z,804.00
2023-05-05T04:10:07.186Z,803.00
2023-05-05T04:11:06.876Z,804.00
2023-05-05T04:12:06.830Z,802.00
2023-05-05T04:13:06.842Z,817.00
2023-05-05T04:14:06.797Z,816.00
2023-05-05T04:15:06.788Z,799.00
2023-05-05T04:16:06.818Z,806.00
2023-05-05T04:17:06.770Z,810.00
2023-05-05T04:18:06.826Z,814.00
2023-05-05T04:19:06.782Z,820.00
2023-05-05T04:20:07.047Z,807.00
2023-05-05T04:21:06.789Z,817.00
2023-05-05T04:22:06.796Z,808.00
2023-05-05T04:23:06.806Z,802.00
2023-05-05T04:24:06.814Z,815.00
2023-05-05T04:25:06.821Z,815.00
2023-05-05T04:26:06.829Z,797.00
2023-05-05T04:27:06.827Z,811.00
2023-05-05T04:28:06.839Z,798.00
2023-05-05T04:29:06.841Z,804.00
2023-05-05T04:30:07.029Z,802.00
2023-05-05T04:31:06.916Z,792.00
2023-05-05T04:32:06.868Z,799.00
2023-05-05T04:33:06.887Z,795.00
2023-05-05T04:34:06.904Z,800.00
2023-05-05T04:35:06.932Z,806.00
2023-05-05T04:36:06.872Z,806.00
2023-05-05T04:37:06.880Z,793.00
2023-05-05T04:38:06.886Z,792.00
2023-05-05T04:39:07.173Z,804.00
2023-05-05T04:40:07.094Z,805.00
2023-05-05T04:41:06.908Z,796.00
2023-05-05T04:42:06.916Z,796.00
2023-05-05T04:43:06.928Z,806.00
2023-05-05T04:44:06.928Z,792.00
2023-05-05T04:45:06.953Z,806.00
2023-05-05T04:46:06.987Z,805.00
2023-05-05T04:47:06.965Z,787.00
2023-05-05T04:48:07.011Z,793.00
2023-05-05T04:49:06.990Z,804.00
2023-05-05T04:50:07.249Z,795.00
2023-05-05T04:51:06.989Z,799.00
2023-05-05T04:52:07.000Z,797.00
2023-05-05T04:53:07.020Z,783.00
2023-05-05T04:54:07.032Z,786.00
2023-05-05T04:55:07.026Z,793.00
2023-05-05T04:56:07.047Z,791.00
2023-05-05T04:57:07.044Z,781.00
2023-05-05T04:58:07.042Z,783.00
2023-05-05T04:59:07.025Z,784.00
2023-05-05T05:00:07.302Z,786.00
2023-05-05T05:01:06.995Z,792.00
2023-05-05T05:02:07.028Z,793.00
2023-05-05T05:03:07.064Z,784.00
2023-05-05T05:04:06.964Z,780.00
2023-05-05T05:05:06.978Z,782.00
2023-05-05T05:06:06.947Z,780.00
2023-05-05T05:07:06.934Z,785.00
2023-05-05T05:08:06.939Z,784.00
2023-05-05T05:09:06.935Z,783.00
2023-05-05T05:10:07.218Z,784.00
2023-05-05T05:11:06.911Z,782.00
2023-05-05T05:12:06.903Z,766.00
2023-05-05T05:13:06.912Z,771.00
2023-05-05T05:14:06.885Z,778.00
2023-05-05T05:15:06.875Z,774.00
2023-05-05T05:16:06.935Z,770.00
2023-05-05T05:17:06.893Z,772.00
2023-05-05T05:18:06.860Z,778.00
2023-05-05T05:19:06.837Z,761.00
2023-05-05T05:20:06.966Z,779.00
2023-05-05T05:21:06.824Z,782.00
2023-05-05T05:22:06.810Z,799.00
2023-05-05T05:23:06.812Z,802.00
2023-05-05T05:24:06.789Z,815.00
2023-05-05T05:25:06.972Z,824.00
2023-05-05T05:26:07.788Z,826.00
2023-05-05T05:27:09.678Z,835.00
2023-05-05T05:28:10.756Z,827.00
2023-05-05T05:29:06.739Z,827.00
2023-05-05T05:30:07.086Z,838.00
2023-05-05T05:31:06.748Z,851.00
2023-05-05T05:32:06.947Z,877.00
2023-05-05T05:33:06.759Z,902.00
2023-05-05T05:34:06.707Z,903.00
2023-05-05T05:35:06.680Z,899.00
2023-05-05T05:36:06.694Z,903.00
2023-05-05T05:37:06.678Z,895.00
2023-05-05T05:38:06.662Z,884.00
2023-05-05T05:39:07.472Z,899.00
2023-05-05T05:40:06.911Z,887.00
2023-05-05T05:41:06.616Z,902.00
2023-05-05T05:42:06.623Z,883.00
2023-05-05T05:43:06.642Z,891.00
2023-05-05T05:44:06.618Z,880.00
2023-05-05T05:45:06.587Z,878.00
2023-05-05T05:46:09.064Z,878.00
2023-05-05T05:47:07.393Z,903.00
2023-05-05T05:48:06.601Z,895.00
2023-05-05T05:49:06.567Z,889.00
2023-05-05T05:50:06.727Z,889.00
2023-05-05T05:51:06.534Z,879.00
2023-05-05T05:52:06.540Z,880.00
2023-05-05T05:53:06.503Z,874.00
2023-05-05T05:54:06.494Z,882.00
2023-05-05T05:55:06.484Z,886.00
2023-05-05T05:56:06.487Z,876.00
2023-05-05T05:57:06.453Z,881.00
2023-05-05T05:58:06.444Z,880.00
2023-05-05T05:59:06.430Z,882.00
2023-05-05T06:00:06.718Z,883.00
2023-05-05T06:01:06.990Z,881.00
2023-05-05T06:02:06.426Z,884.00
2023-05-05T06:03:06.528Z,881.00
2023-05-05T06:04:06.449Z,881.00
2023-05-05T06:05:06.349Z,883.00
2023-05-05T06:06:06.345Z,884.00
2023-05-05T06:07:06.345Z,881.00
2023-05-05T06:08:06.321Z,881.00
2023-05-05T06:09:06.293Z,865.00
2023-05-05T06:10:22.787Z,870.00
2023-05-05T06:11:06.988Z,872.00
2023-05-05T06:12:07.090Z,874.00
2023-05-05T06:13:06.300Z,877.00
2023-05-05T06:14:06.234Z,880.00
2023-05-05T06:15:06.189Z,881.00
2023-05-05T06:16:06.178Z,879.00
2023-05-05T06:17:06.161Z,885.00
2023-05-05T06:18:06.170Z,890.00
2023-05-05T06:19:06.134Z,885.00
2023-05-05T06:20:06.178Z,876.00
2023-05-05T06:21:06.107Z,881.00
2023-05-05T06:22:06.115Z,881.00
2023-05-05T06:23:06.163Z,878.00
2023-05-05T06:24:06.181Z,892.00
2023-05-05T06:25:06.260Z,888.00
2023-05-05T06:26:06.288Z,887.00
2023-05-05T06:27:06.324Z,884.00
2023-05-05T06:28:06.360Z,886.00
2023-05-05T06:29:06.399Z,885.00
2023-05-05T06:30:06.564Z,882.00
2023-05-05T06:31:06.517Z,905.00
2023-05-05T06:32:06.999Z,900.00
2023-05-05T06:33:06.598Z,938.00
2023-05-05T06:34:06.726Z,937.00
2023-05-05T06:35:06.681Z,980.00
2023-05-05T06:36:06.713Z,1008.00
2023-05-05T06:37:07.662Z,1010.00
2023-05-05T06:38:06.649Z,1018.00
2023-05-05T06:39:06.630Z,1035.00
2023-05-05T06:40:06.745Z,1068.00
2023-05-05T06:41:06.569Z,1141.00
2023-05-05T06:42:06.562Z,1171.00
2023-05-05T06:43:06.516Z,1173.00
2023-05-05T06:44:06.517Z,1185.00
2023-05-05T06:45:06.488Z,1209.00
2023-05-05T06:46:08.005Z,1176.00
2023-05-05T06:47:06.434Z,1200.00
2023-05-05T06:48:06.420Z,1242.00
2023-05-05T06:49:06.373Z,1312.00
2023-05-05T06:50:06.785Z,1425.00
2023-05-05T06:51:12.206Z,1473.00
2023-05-05T06:52:06.288Z,1476.00
2023-05-05T06:53:06.256Z,1485.00
2023-05-05T06:54:06.255Z,1507.00
2023-05-05T06:55:06.194Z,1545.00
2023-05-05T06:56:06.168Z,1619.00
2023-05-05T06:57:06.143Z,1645.00
2023-05-05T06:58:06.103Z,1677.00
2023-05-05T06:59:06.083Z,1702.00
2023-05-05T07:00:06.178Z,1726.00
2023-05-05T07:01:06.074Z,1757.00
2023-05-05T07:02:06.004Z,1760.00
2023-05-05T07:03:06.048Z,1766.00
2023-05-05T07:04:05.943Z,1786.00
2023-05-05T07:05:05.949Z,1813.00
2023-05-05T07:06:06.033Z,1874.00
2023-05-05T07:07:05.870Z,1920.00
2023-05-05T07:08:05.795Z,1957.00
2023-05-05T07:09:05.811Z,1968.00
2023-05-05T07:10:06.702Z,2006.00
2023-05-05T07:11:05.694Z,2026.00
2023-05-05T07:12:05.674Z,2054.00
2023-05-05T07:13:05.704Z,2075.00
2023-05-05T07:14:05.617Z,2077.00
2023-05-05T07:15:19.224Z,2079.00
2023-05-05T07:16:06.589Z,2080.00
2023-05-05T07:17:05.494Z,2101.00
2023-05-05T07:18:05.667Z,2130.00
2023-05-05T07:19:05.468Z,2141.00
2023-05-05T07:20:05.421Z,1913.00
2023-05-05T07:21:05.368Z,1913.00
2023-05-05T07:22:05.514Z,1808.00
2023-05-05T07:23:05.289Z,1478.00
2023-05-05T07:24:05.271Z,1455.00
2023-05-05T07:25:05.261Z,1469.00
2023-05-05T07:26:05.250Z,1142.00
2023-05-05T07:27:05.237Z,961.00
2023-05-05T07:28:05.256Z,972.00
2023-05-05T07:29:05.358Z,990.00
2023-05-05T07:30:10.114Z,863.00
2023-05-05T07:31:05.279Z,864.00
2023-05-05T07:32:05.286Z,885.00
2023-05-05T07:33:05.296Z,855.00
2023-05-05T07:34:05.218Z,653.00
2023-05-05T07:35:05.203Z,593.00
2023-05-05T07:36:05.185Z,559.00
2023-05-05T07:37:05.191Z,654.00
2023-05-05T07:38:05.245Z,743.00
2023-05-05T07:39:05.164Z,713.00
2023-05-05T07:40:05.186Z,685.00
2023-05-05T07:41:05.120Z,675.00
2023-05-05T07:42:05.174Z,684.00
2023-05-05T07:43:05.252Z,665.00
2023-05-05T07:44:05.281Z,659.00
2023-05-05T07:45:05.298Z,673.00
2023-05-05T07:46:06.017Z,665.00
2023-05-05T07:47:05.360Z,665.00
2023-05-05T07:48:05.430Z,686.00
2023-05-05T07:49:05.416Z,678.00
2023-05-05T07:50:05.495Z,695.00
2023-05-05T07:51:05.483Z,643.00
2023-05-05T07:52:05.519Z,654.00
2023-05-05T07:53:13.690Z,670.00
2023-05-05T07:54:05.638Z,670.00
2023-05-05T07:55:05.482Z,676.00
2023-05-05T07:56:05.463Z,678.00
2023-05-05T07:57:05.450Z,693.00
2023-05-05T07:58:05.439Z,718.00
2023-05-05T07:59:05.399Z,681.00
2023-05-05T08:00:05.464Z,692.00
2023-05-05T08:01:05.356Z,662.00
2023-05-05T08:02:06.371Z,663.00
2023-05-05T08:03:05.643Z,665.00
2023-05-05T08:04:05.357Z,668.00
2023-05-05T08:05:05.397Z,690.00
2023-05-05T08:06:05.235Z,670.00
2023-05-05T08:07:05.276Z,663.00
2023-05-05T08:08:05.184Z,664.00
2023-05-05T08:09:05.173Z,664.00
2023-05-05T08:10:07.078Z,631.00
2023-05-05T08:11:05.106Z,567.00
2023-05-05T08:12:06.039Z,523.00
2023-05-05T08:13:05.123Z,488.00
2023-05-05T08:14:05.090Z,464.00
2023-05-05T08:15:05.174Z,509.00
2023-05-05T08:16:05.065Z,539.00
2023-05-05T08:17:05.036Z,555.00
2023-05-05T08:18:05.079Z,605.00
2023-05-05T08:19:07.907Z,653.00
2023-05-05T08:20:05.975Z,653.00
2023-05-05T08:21:05.549Z,638.00
2023-05-05T08:22:04.917Z,653.00
2023-05-05T08:23:04.890Z,670.00
2023-05-05T08:24:04.883Z,655.00
2023-05-05T08:25:04.866Z,513.00
2023-05-05T08:26:04.888Z,493.00
2023-05-05T08:27:04.825Z,550.00
2023-05-05T08:28:04.789Z,608.00
2023-05-05T08:29:04.778Z,646.00
2023-05-05T08:30:04.817Z,659.00
2023-05-05T08:31:04.796Z,602.00
2023-05-05T08:32:04.851Z,648.00
2023-05-05T08:33:04.844Z,658.00
2023-05-05T08:34:04.898Z,669.00
2023-05-05T08:35:04.950Z,683.00
2023-05-05T08:36:04.970Z,669.00
2023-05-05T08:37:05.008Z,706.00
2023-05-05T08:38:05.973Z,664.00
2023-05-05T08:39:04.949Z,686.00
2023-05-05T08:40:04.918Z,708.00
2023-05-05T08:41:04.896Z,709.00
2023-05-05T08:42:05.077Z,738.00
2023-05-05T08:43:04.964Z,751.00
2023-05-05T08:44:04.830Z,748.00
2023-05-05T08:45:04.877Z,784.00
2023-05-05T08:46:04.793Z,785.00
2023-05-05T08:47:04.834Z,801.00
2023-05-05T08:48:04.849Z,817.00
2023-05-05T08:49:04.709Z,835.00
2023-05-05T08:50:05.540Z,851.00
2023-05-05T08:51:05.575Z,853.00
2023-05-05T08:52:04.667Z,858.00
2023-05-05T08:53:04.652Z,866.00
2023-05-05T08:54:04.636Z,893.00
2023-05-05T08:55:04.606Z,912.00
2023-05-05T08:56:05.533Z,933.00
2023-05-05T08:57:04.702Z,943.00
2023-05-05T08:58:05.572Z,944.00
2023-05-05T08:59:04.472Z,948.00
2023-05-05T09:00:05.039Z,955.00
2023-05-05T09:01:04.443Z,963.00
2023-05-05T09:02:04.428Z,971.00
2023-05-05T09:03:04.517Z,979.00
2023-05-05T09:04:05.129Z,985.00
2023-05-05T09:05:04.290Z,971.00
2023-05-05T09:06:04.265Z,995.00
2023-05-05T09:07:04.248Z,975.00
2023-05-05T09:08:04.208Z,977.00
2023-05-05T09:09:04.172Z,978.00
2023-05-05T09:10:07.049Z,982.00
2023-05-05T09:11:04.122Z,992.00
2023-05-05T09:12:04.088Z,1003.00
2023-05-05T09:13:04.118Z,1017.00
2023-05-05T09:14:04.600Z,1021.00
2023-05-05T09:15:04.006Z,957.00
2023-05-05T09:16:04.541Z,921.00
2023-05-05T09:17:04.691Z,997.00
2023-05-05T09:18:03.965Z,1035.00
2023-05-05T09:19:03.899Z,1053.00
2023-05-05T09:20:04.033Z,1077.00
2023-05-05T09:21:03.832Z,1112.00
2023-05-05T09:22:03.800Z,1136.00
2023-05-05T09:23:08.562Z,1163.00
2023-05-05T09:24:08.163Z,1165.00
2023-05-05T09:25:04.779Z,1166.00
2023-05-05T09:26:04.546Z,1176.00
2023-05-05T09:27:03.675Z,1192.00
2023-05-05T09:28:03.606Z,1213.00
2023-05-05T09:29:03.582Z,1257.00
2023-05-05T09:30:03.615Z,1278.00
2023-05-05T09:31:03.501Z,1293.00
2023-05-05T09:32:03.451Z,1295.00
2023-05-05T09:33:03.460Z,1303.00
2023-05-05T09:34:04.053Z,1317.00
2023-05-05T09:35:03.347Z,1341.00
2023-05-05T09:36:03.308Z,1384.00
2023-05-05T09:37:03.274Z,1383.00
2023-05-05T09:38:03.228Z,1422.00
2023-05-05T09:39:03.189Z,1439.00
2023-05-05T09:40:03.169Z,1443.00
2023-05-05T09:41:04.053Z,1460.00
2023-05-05T09:42:03.097Z,1479.00
2023-05-05T09:43:03.075Z,1493.00
2023-05-05T09:44:02.998Z,1509.00
2023-05-05T09:45:02.982Z,1525.00
2023-05-05T09:46:03.058Z,1548.00
2023-05-05T09:48:02.977Z,1582.00
2023-05-05T09:49:02.850Z,1589.00
2023-05-05T09:50:02.815Z,1592.00
2023-05-05T09:51:02.767Z,1621.00
2023-05-05T09:52:02.734Z,1622.00
2023-05-05T09:53:02.722Z,1628.00
2023-05-05T09:54:02.669Z,1637.00
2023-05-05T09:55:02.730Z,1658.00
2023-05-05T09:56:02.625Z,1696.00
2023-05-05T09:57:03.054Z,1694.00
2023-05-05T09:58:02.529Z,1713.00
2023-05-05T09:59:02.482Z,1723.00
2023-05-05T10:00:03.081Z,1738.00
2023-05-05T10:01:02.387Z,1760.00
2023-05-05T10:02:04.199Z,1771.00
2023-05-05T10:03:02.360Z,1779.00
2023-05-05T10:04:02.278Z,1773.00
2023-05-05T10:05:02.588Z,1768.00
2023-05-05T10:06:02.245Z,1768.00
2023-05-05T10:07:03.144Z,1773.00
2023-05-05T10:08:04.122Z,1727.00
2023-05-05T10:09:02.113Z,1716.00
2023-05-05T10:10:02.075Z,1712.00
2023-05-05T10:11:02.048Z,1697.00
2023-05-05T10:12:02.042Z,1703.00
2023-05-05T10:13:01.999Z,1695.00
2023-05-05T10:14:02.982Z,1689.00
2023-05-05T10:15:01.920Z,1673.00
2023-05-05T10:16:01.911Z,1678.00
2023-05-05T10:17:01.833Z,1679.00
2023-05-05T10:18:07.707Z,1680.00
2023-05-05T10:19:02.820Z,1679.00
2023-05-05T10:20:01.780Z,1684.00
2023-05-05T10:21:01.829Z,1680.00
2023-05-05T10:22:01.797Z,1684.00
2023-05-05T10:23:01.728Z,1666.00
2023-05-05T10:24:01.667Z,1665.00
2023-05-05T10:25:01.700Z,1668.00
2023-05-05T10:26:01.643Z,1665.00
2023-05-05T10:27:01.650Z,1650.00
2023-05-05T10:28:01.586Z,1657.00
2023-05-05T10:29:01.576Z,1648.00
2023-05-05T10:30:01.579Z,1646.00
2023-05-05T10:31:02.141Z,1636.00
2023-05-05T10:32:01.799Z,1639.00
2023-05-05T10:33:17.388Z,1648.00
2023-05-05T10:34:02.648Z,1648.00
2023-05-05T10:35:01.463Z,1646.00
2023-05-05T10:36:01.572Z,1642.00
2023-05-05T10:37:01.425Z,1630.00
2023-05-05T10:38:01.428Z,1631.00
2023-05-05T10:39:01.397Z,1615.00
2023-05-05T10:40:01.379Z,1618.00
2023-05-05T10:41:01.372Z,1606.00
2023-05-05T10:42:01.340Z,1610.00
2023-05-05T10:43:01.321Z,1610.00
2023-05-05T10:44:03.758Z,1607.00
2023-05-05T10:45:01.359Z,1621.00
2023-05-05T10:46:01.347Z,1598.00
2023-05-05T10:47:01.275Z,1597.00
2023-05-05T10:48:01.420Z,1587.00
2023-05-05T10:49:02.270Z,1589.00
2023-05-05T10:50:01.382Z,1590.00
2023-05-05T10:51:01.213Z,1593.00
2023-05-05T10:52:01.206Z,1593.00
2023-05-05T10:53:01.192Z,1597.00
2023-05-05T10:54:01.208Z,1587.00
2023-05-05T10:55:01.170Z,1584.00
2023-05-05T10:56:01.145Z,1582.00
2023-05-05T10:57:01.134Z,1574.00
2023-05-05T10:58:01.135Z,1563.00
2023-05-05T10:59:01.119Z,1562.00
2023-05-05T11:00:01.136Z,1563.00
2023-05-05T11:01:01.078Z,1569.00
2023-05-05T11:02:01.073Z,1550.00
2023-05-05T11:03:01.056Z,1554.00
2023-05-05T11:04:01.072Z,1539.00
2023-05-05T11:05:00.962Z,1548.00
2023-05-05T11:06:01.044Z,1536.00
2023-05-05T11:07:01.013Z,1531.00
2023-05-05T11:08:00.981Z,1534.00
2023-05-05T11:09:00.888Z,1528.00
2023-05-05T11:10:00.851Z,1537.00
2023-05-05T11:11:01.855Z,1538.00
2023-05-05T11:12:00.804Z,1541.00
2023-05-05T11:13:00.815Z,1538.00
2023-05-05T11:14:00.765Z,1541.00
2023-05-05T11:15:01.162Z,1537.00
2023-05-05T11:16:00.765Z,1522.00
2023-05-05T11:17:00.865Z,1520.00
2023-05-05T11:18:01.909Z,1510.00
2023-05-05T11:19:01.732Z,1520.00
2023-05-05T11:20:01.529Z,1504.00
2023-05-05T11:21:01.557Z,1509.00
2023-05-05T11:22:01.129Z,1496.00
2023-05-05T11:23:00.822Z,1490.00
2023-05-05T11:24:00.891Z,1491.00
2023-05-05T11:25:00.852Z,1492.00
2023-05-05T11:26:00.849Z,1495.00
2023-05-05T11:27:00.934Z,1488.00
2023-05-05T11:28:00.878Z,1481.00
2023-05-05T11:29:01.049Z,1484.00
2023-05-05T11:30:01.108Z,1471.00
2023-05-05T11:31:00.980Z,1484.00
2023-05-05T11:32:00.931Z,1477.00
2023-05-05T11:33:01.053Z,1477.00
2023-05-05T11:34:00.953Z,1465.00
2023-05-05T11:35:00.977Z,1458.00
2023-05-05T11:36:01.799Z,1459.00
2023-05-05T11:37:00.994Z,1456.00
2023-05-05T11:38:01.139Z,1462.00
2023-05-05T11:39:01.056Z,1447.00
2023-05-05T11:40:01.054Z,1452.00
2023-05-05T11:41:01.071Z,1440.00
2023-05-05T11:42:03.797Z,1443.00
2023-05-05T11:43:02.036Z,1445.00
2023-05-05T11:44:01.038Z,1444.00
2023-05-05T11:45:01.144Z,1438.00
2023-05-05T11:46:01.099Z,1439.00
2023-05-05T11:47:00.984Z,1435.00
2023-05-05T11:48:01.644Z,1441.00
2023-05-05T11:49:00.935Z,1425.00
2023-05-05T11:50:00.941Z,1414.00
2023-05-05T11:51:00.902Z,1432.00
2023-05-05T11:52:00.958Z,1422.00
2023-05-05T11:53:00.870Z,1414.00
2023-05-05T11:54:01.078Z,1424.00
2023-05-05T11:55:02.304Z,1418.00
2023-05-05T11:56:00.839Z,1414.00
2023-05-05T11:57:00.795Z,1409.00
2023-05-05T11:58:00.770Z,1402.00
2023-05-05T11:59:00.756Z,1399.00
2023-05-05T12:00:01.260Z,1404.00
2023-05-05T12:01:00.756Z,1396.00
2023-05-05T12:02:00.731Z,1403.00
2023-05-05T12:03:00.912Z,1385.00
2023-05-05T12:04:00.935Z,1388.00
2023-05-05T12:05:00.808Z,1397.00
2023-05-05T12:06:00.768Z,1372.00
2023-05-05T12:07:00.781Z,1376.00
2023-05-05T12:08:00.811Z,1376.00
2023-05-05T12:09:00.795Z,1373.00
2023-05-05T12:10:00.873Z,1385.00
2023-05-05T12:11:00.801Z,1378.00
2023-05-05T12:12:00.808Z,1363.00
2023-05-05T12:13:00.859Z,1364.00
2023-05-05T12:14:00.818Z,1379.00
2023-05-05T12:15:01.107Z,1351.00
2023-05-05T12:16:00.884Z,1358.00
2023-05-05T12:17:00.839Z,1351.00
2023-05-05T12:18:03.275Z,1352.00
2023-05-05T12:19:00.796Z,1356.00
2023-05-05T12:20:00.800Z,1355.00
2023-05-05T12:21:00.753Z,1357.00
2023-05-05T12:22:00.736Z,1354.00